createdAt,value
2023-01-13T00:01:06.737Z,3.27
2023-01-13T00:03:08.330Z,2.60
2023-01-13T00:05:10.373Z,3.08
2023-01-13T00:07:12.063Z,3.75
2023-01-13T00:09:13.727Z,3.63
2023-01-13T00:11:18.989Z,5.65
2023-01-13T00:13:22.620Z,2.33
2023-01-13T00:15:24.296Z,4.32
2023-01-13T00:17:25.962Z,4.90
2023-01-13T00:19:27.862Z,5.47
2023-01-13T00:21:29.611Z,3.47
2023-01-13T00:23:32.956Z,7.00
2023-01-13T00:25:34.658Z,3.43
2023-01-13T00:27:36.467Z,2.30
2023-01-13T00:29:39.648Z,4.57
2023-01-13T00:31:41.249Z,5.10
2023-01-13T00:33:43.408Z,2.53
2023-01-13T00:35:45.145Z,3.85
2023-01-13T00:37:46.817Z,2.65
2023-01-13T00:39:48.613Z,4.72
2023-01-13T00:41:50.401Z,3.80
2023-01-13T00:43:52.148Z,3.53
2023-01-13T00:45:55.610Z,3.13
2023-01-13T00:47:57.198Z,5.32
2023-01-13T00:49:58.849Z,3.30
2023-01-13T00:52:00.463Z,2.90
2023-01-13T00:54:02.174Z,4.68
2023-01-13T00:56:05.948Z,2.60
2023-01-13T00:58:07.533Z,3.72
2023-01-13T01:00:10.882Z,3.13
2023-01-13T01:02:14.286Z,3.40
2023-01-13T01:04:17.576Z,2.13
2023-01-13T01:06:21.349Z,7.13
2023-01-13T01:08:23.514Z,2.00
2023-01-13T01:10:25.454Z,3.00
2023-01-13T01:12:27.174Z,6.80
2023-01-13T01:14:29.108Z,2.50
2023-01-13T01:16:32.960Z,1.83
2023-01-13T01:18:37.099Z,2.65
2023-01-13T01:20:38.748Z,2.33
2023-01-13T01:22:40.389Z,2.10
2023-01-13T01:24:42.007Z,3.90
2023-01-13T01:26:43.638Z,2.40
2023-01-13T01:28:48.531Z,4.07
2023-01-13T01:30:52.817Z,3.47
2023-01-13T01:32:54.487Z,9.02
2023-01-13T01:35:00.287Z,1.95
2023-01-13T01:37:01.921Z,3.10
2023-01-13T01:39:04.772Z,2.43
2023-01-13T01:41:07.156Z,2.42
2023-01-13T01:43:14.464Z,3.25
2023-01-13T01:45:19.525Z,4.45
2023-01-13T01:47:22.642Z,2.97
2023-01-13T01:49:28.925Z,3.72
2023-01-13T01:51:35.584Z,3.37
2023-01-13T01:53:37.908Z,3.77
2023-01-13T01:55:40.024Z,3.10
2023-01-13T01:57:48.168Z,2.53
2023-01-13T01:59:51.016Z,1.53
2023-01-13T02:01:52.845Z,7.35
2023-01-13T02:04:01.397Z,3.90
2023-01-13T02:06:03.422Z,7.33
2023-01-13T02:08:08.849Z,3.15
2023-01-13T02:10:12.959Z,2.47
2023-01-13T02:12:15.636Z,3.03
2023-01-13T02:14:18.068Z,2.20
2023-01-13T02:16:23.371Z,4.47
2023-01-13T02:18:36.333Z,2.47
2023-01-13T02:20:55.243Z,2.00
2023-01-13T02:23:30.613Z,1.80
2023-01-13T02:26:00.712Z,3.60
2023-01-13T02:28:30.451Z,2.17
2023-01-13T02:30:40.672Z,3.50
2023-01-13T02:32:56.375Z,3.03
2023-01-13T02:35:05.276Z,1.90
2023-01-13T02:37:14.253Z,3.27
2023-01-13T02:39:23.123Z,1.60
2023-01-13T02:41:31.515Z,2.60
2023-01-13T02:43:38.453Z,1.50
2023-01-13T02:45:51.104Z,1.38
2023-01-13T02:47:53.912Z,4.20
2023-01-13T02:50:00.288Z,1.90
2023-01-13T02:52:09.085Z,2.00
2023-01-13T02:54:15.562Z,2.10
2023-01-13T02:56:17.957Z,5.80
2023-01-13T02:58:24.105Z,1.60
2023-01-13T03:00:26.911Z,1.80
2023-01-13T03:02:29.929Z,2.38
2023-01-13T03:04:54.184Z,3.90
2023-01-13T03:07:04.131Z,2.67
2023-01-13T03:09:12.081Z,3.65
2023-01-13T03:11:16.738Z,2.42
2023-01-13T03:13:33.402Z,3.00
2023-01-13T03:15:43.626Z,1.98
2023-01-13T03:17:55.780Z,2.70
2023-01-13T03:20:04.868Z,3.80
2023-01-13T03:22:18.157Z,1.93
2023-01-13T03:24:25.781Z,3.15
2023-01-13T03:26:33.990Z,2.35
2023-01-13T03:28:40.366Z,2.15
2023-01-13T03:30:48.531Z,3.05
2023-01-13T03:32:58.781Z,2.00
2023-01-13T03:35:08.020Z,3.25
2023-01-13T03:37:10.911Z,2.05
2023-01-13T03:39:19.920Z,5.07
2023-01-13T03:41:25.899Z,7.25
2023-01-13T03:43:33.589Z,3.43
2023-01-13T03:45:37.142Z,2.10
2023-01-13T03:47:42.688Z,2.30
2023-01-13T03:49:52.746Z,4.85
2023-01-13T03:51:58.703Z,2.50
2023-01-13T03:54:04.972Z,2.40
2023-01-13T03:56:15.809Z,1.98
2023-01-13T03:58:22.457Z,2.30
2023-01-13T04:00:31.735Z,3.40
2023-01-13T04:02:44.048Z,4.13
2023-01-13T04:04:51.999Z,2.33
2023-01-13T04:06:58.210Z,3.78
2023-01-13T04:09:06.677Z,1.52
2023-01-13T04:11:14.614Z,3.58
2023-01-13T04:13:20.559Z,1.48
2023-01-13T04:15:25.264Z,1.20
2023-01-13T04:17:26.908Z,1.83
2023-01-13T04:19:28.596Z,2.27
2023-01-13T04:21:31.871Z,2.53
2023-01-13T04:23:34.160Z,1.80
2023-01-13T04:25:36.268Z,4.65
2023-01-13T04:27:38.100Z,2.42
2023-01-13T04:29:39.780Z,2.53
2023-01-13T04:31:41.574Z,2.10
2023-01-13T04:33:43.435Z,1.60
2023-01-13T04:35:46.346Z,2.58
2023-01-13T04:37:49.542Z,2.40
2023-01-13T04:39:51.270Z,1.83
2023-01-13T04:41:52.929Z,2.60
2023-01-13T04:43:54.645Z,1.30
2023-01-13T04:45:56.316Z,3.57
2023-01-13T04:47:58.612Z,3.47
2023-01-13T04:50:01.763Z,3.25
2023-01-13T04:52:04.253Z,1.43
2023-01-13T04:54:10.417Z,1.75
2023-01-13T04:56:12.086Z,2.63
2023-01-13T04:58:15.334Z,2.17
2023-01-13T05:00:20.142Z,2.45
2023-01-13T05:02:22.077Z,1.70
2023-01-13T05:04:24.142Z,2.85
2023-01-13T05:06:28.006Z,2.25
2023-01-13T05:08:29.666Z,2.33
2023-01-13T05:10:32.734Z,2.27
2023-01-13T05:12:34.549Z,4.13
2023-01-13T05:14:36.185Z,1.35
2023-01-13T05:16:37.913Z,3.07
2023-01-13T05:18:39.850Z,3.40
2023-01-13T05:20:43.061Z,1.30
2023-01-13T05:22:44.699Z,2.70
2023-01-13T05:24:47.069Z,2.00
2023-01-13T05:26:50.196Z,2.57
2023-01-13T05:28:52.021Z,1.67
2023-01-13T05:30:53.772Z,1.80
2023-01-13T05:32:55.724Z,4.10
2023-01-13T05:34:57.781Z,1.77
2023-01-13T05:36:59.443Z,1.60
2023-01-13T05:39:01.088Z,1.47
2023-01-13T05:41:02.947Z,1.50
2023-01-13T05:43:09.076Z,1.80
2023-01-13T05:45:11.416Z,1.98
2023-01-13T05:47:13.040Z,4.57
2023-01-13T05:49:14.600Z,2.43
2023-01-13T05:51:16.192Z,1.40
2023-01-13T05:53:18.440Z,1.93
2023-01-13T05:55:20.123Z,1.85
2023-01-13T05:57:21.914Z,1.85
2023-01-13T05:59:24.891Z,1.47
2023-01-13T06:01:26.578Z,1.87
2023-01-13T06:03:28.388Z,1.60
2023-01-13T06:05:30.744Z,1.30
2023-01-13T06:07:32.408Z,1.70
2023-01-13T06:09:34.052Z,2.30
2023-01-13T06:11:35.670Z,1.15
2023-01-13T06:13:37.339Z,5.55
2023-01-13T06:15:40.318Z,2.20
2023-01-13T06:17:41.960Z,2.80
2023-01-13T06:19:43.623Z,2.70
2023-01-13T06:21:45.514Z,2.90
2023-01-13T06:23:47.365Z,2.43
2023-01-13T06:25:56.593Z,1.80
2023-01-13T06:27:59.942Z,4.57
2023-01-13T06:30:01.611Z,6.30
2023-01-13T06:32:09.584Z,4.25
2023-01-13T06:34:14.861Z,1.88
2023-01-13T06:36:19.507Z,5.82
2023-01-13T06:38:25.353Z,2.25
2023-01-13T06:40:30.340Z,1.80
2023-01-13T06:42:35.428Z,1.85
2023-01-13T06:44:37.581Z,4.15
2023-01-13T06:46:39.548Z,2.25
2023-01-13T06:48:42.694Z,1.60
2023-01-13T06:50:44.883Z,3.38
2023-01-13T06:52:46.799Z,2.70
2023-01-13T06:54:48.583Z,1.73
2023-01-13T06:56:51.696Z,3.47
2023-01-13T06:58:53.393Z,2.63
2023-01-13T07:00:59.265Z,1.65
2023-01-13T07:03:11.967Z,2.25
2023-01-13T07:05:15.817Z,2.95
2023-01-13T07:07:17.474Z,3.13
2023-01-13T07:09:19.226Z,1.73
2023-01-13T07:11:22.212Z,2.10
2023-01-13T07:13:24.061Z,1.52
2023-01-13T07:15:29.039Z,1.70
2023-01-13T07:17:30.643Z,1.20
2023-01-13T07:19:32.575Z,1.27
2023-01-13T07:21:35.549Z,1.60
2023-01-13T07:23:39.078Z,2.28
2023-01-13T07:25:40.706Z,1.55
2023-01-13T07:27:42.404Z,2.05
2023-01-13T07:29:46.788Z,1.00
2023-01-13T07:31:50.144Z,2.47
2023-01-13T07:33:52.264Z,1.40
2023-01-13T07:35:57.059Z,2.33
2023-01-13T07:38:00.176Z,1.63
2023-01-13T07:40:02.186Z,3.60
2023-01-13T07:42:04.040Z,4.15
2023-01-13T07:44:06.355Z,1.75
2023-01-13T07:46:08.101Z,3.25
2023-01-13T07:48:09.874Z,2.30
2023-01-13T07:50:12.000Z,1.50
2023-01-13T07:52:13.838Z,1.55
2023-01-13T07:54:21.146Z,2.17
2023-01-13T07:56:27.407Z,3.95
2023-01-13T07:58:29.465Z,1.50
2023-01-13T08:00:31.082Z,2.60
2023-01-13T08:02:33.209Z,2.55
2023-01-13T08:04:35.012Z,1.88
2023-01-13T08:06:39.009Z,1.40
2023-01-13T08:08:40.777Z,1.65
2023-01-13T08:10:44.276Z,2.15
2023-01-13T08:12:53.065Z,2.57
2023-01-13T08:14:59.044Z,2.28
2023-01-13T08:17:00.966Z,3.60
2023-01-13T08:19:02.600Z,4.88
2023-01-13T08:21:06.474Z,2.35
2023-01-13T08:23:08.145Z,2.88
2023-01-13T08:25:09.859Z,2.83
2023-01-13T08:27:13.252Z,5.90
2023-01-13T08:29:16.192Z,4.47
2023-01-13T08:31:18.241Z,2.78
2023-01-13T08:33:20.574Z,4.05
2023-01-13T08:35:22.709Z,9.02
2023-01-13T08:37:24.591Z,4.30
2023-01-13T08:39:26.282Z,4.32
2023-01-13T08:41:28.196Z,4.57
2023-01-13T08:43:31.207Z,7.15
2023-01-13T08:45:33.165Z,5.25
2023-01-13T08:47:35.212Z,3.47
2023-01-13T08:49:37.077Z,4.00
2023-01-13T08:51:38.805Z,2.63
2023-01-13T08:53:40.537Z,5.13
2023-01-13T08:55:42.237Z,3.60
2023-01-13T08:57:44.006Z,5.50
2023-01-13T08:59:47.224Z,8.30
2023-01-13T09:01:48.975Z,7.70
2023-01-13T09:03:50.905Z,4.35
2023-01-13T09:05:52.723Z,3.87
2023-01-13T09:07:54.410Z,3.15
2023-01-13T09:09:56.154Z,4.43
2023-01-13T09:11:57.957Z,2.92
2023-01-13T09:14:01.232Z,2.35
2023-01-13T09:16:06.237Z,3.55
2023-01-13T09:18:07.999Z,3.45
2023-01-13T09:20:11.273Z,5.05
2023-01-13T09:22:16.293Z,6.35
2023-01-13T09:24:20.220Z,4.80
2023-01-13T09:26:21.987Z,3.60
2023-01-13T09:28:23.751Z,3.28
2023-01-13T09:30:25.802Z,5.57
2023-01-13T09:32:28.906Z,5.13
2023-01-13T09:34:30.659Z,4.18
2023-01-13T09:36:32.329Z,7.25
2023-01-13T09:38:34.045Z,3.72
2023-01-13T09:40:39.672Z,3.17
2023-01-13T09:42:46.845Z,3.33
2023-01-13T09:44:53.216Z,4.78
2023-01-13T09:46:58.882Z,1.90
2023-01-13T09:49:02.696Z,3.35
2023-01-13T09:51:11.978Z,3.33
2023-01-13T09:53:20.152Z,2.90
2023-01-13T09:55:26.770Z,4.82
2023-01-13T09:57:32.620Z,7.70
2023-01-13T09:59:34.733Z,3.65
2023-01-13T10:01:44.282Z,4.22
2023-01-13T10:03:46.128Z,9.25
2023-01-13T10:05:55.646Z,4.47
2023-01-13T10:08:01.789Z,3.10
2023-01-13T10:10:09.529Z,5.55
2023-01-13T10:12:17.430Z,6.88
2023-01-13T10:14:23.857Z,5.68
2023-01-13T10:16:33.742Z,7.38
2023-01-13T10:18:49.107Z,11.80
2023-01-13T10:21:01.081Z,4.20
2023-01-13T10:23:14.500Z,6.82
2023-01-13T10:25:33.123Z,3.70
2023-01-13T10:27:37.281Z,3.50
2023-01-13T10:29:39.089Z,6.13
2023-01-13T10:31:41.276Z,3.35
2023-01-13T10:33:43.003Z,6.30
2023-01-13T10:36:15.192Z,3.30
2023-01-13T10:38:19.057Z,3.00
2023-01-13T10:40:20.927Z,6.80
2023-01-13T10:42:24.104Z,3.33
2023-01-13T10:44:26.004Z,4.30
2023-01-13T10:46:29.537Z,4.55
2023-01-13T10:48:40.827Z,3.33
2023-01-13T10:50:44.010Z,4.28
2023-01-13T10:53:01.179Z,5.63
2023-01-13T10:55:04.027Z,4.65
2023-01-13T10:57:19.806Z,6.72
2023-01-13T10:59:23.560Z,4.97
2023-01-13T11:01:27.187Z,4.63
2023-01-13T11:03:38.179Z,5.65
2023-01-13T11:05:40.115Z,6.40
2023-01-13T11:07:47.350Z,8.82
2023-01-13T11:10:05.981Z,5.10
2023-01-13T11:12:30.050Z,7.53
2023-01-13T11:14:38.694Z,11.23
2023-01-13T11:16:52.747Z,3.88
2023-01-13T11:18:59.611Z,5.25
2023-01-13T11:21:07.761Z,3.92
2023-01-13T11:23:15.708Z,9.18
2023-01-13T11:25:23.649Z,6.20
2023-01-13T11:27:37.090Z,4.95
2023-01-13T11:29:47.778Z,10.07
2023-01-13T11:31:54.305Z,5.37
2023-01-13T11:34:02.841Z,7.03
2023-01-13T11:36:10.948Z,4.30
2023-01-13T11:38:20.440Z,9.57
2023-01-13T11:40:31.098Z,5.90
2023-01-13T11:42:41.677Z,8.53
2023-01-13T11:44:50.680Z,6.95
2023-01-13T11:46:53.733Z,10.43
2023-01-13T11:48:59.391Z,6.40
2023-01-13T11:51:08.206Z,7.37
2023-01-13T11:53:28.499Z,7.30
2023-01-13T11:55:38.630Z,5.73
2023-01-13T11:57:56.269Z,7.93
2023-01-13T12:00:16.488Z,9.63
2023-01-13T12:02:33.852Z,7.13
2023-01-13T12:04:43.875Z,6.20
2023-01-13T12:06:48.403Z,7.60
2023-01-13T12:09:12.112Z,8.43
2023-01-13T12:11:25.323Z,7.50
2023-01-13T12:13:44.710Z,5.60
2023-01-13T12:16:15.192Z,6.07
2023-01-13T12:18:40.688Z,6.70
2023-01-13T12:20:51.889Z,4.67
2023-01-13T12:22:57.967Z,8.73
2023-01-13T12:25:05.926Z,6.88
2023-01-13T12:27:15.698Z,4.93
2023-01-13T12:29:19.315Z,5.78
2023-01-13T12:31:22.191Z,5.97
2023-01-13T12:33:40.044Z,7.90
2023-01-13T12:35:49.550Z,6.97
2023-01-13T12:37:58.552Z,5.50
2023-01-13T12:40:19.480Z,5.57
2023-01-13T12:42:29.984Z,6.97
2023-01-13T12:44:31.898Z,4.10
2023-01-13T12:46:35.507Z,5.50
2023-01-13T12:49:03.892Z,6.53
2023-01-13T12:51:21.573Z,4.00
2023-01-13T12:53:36.368Z,4.78
2023-01-13T12:55:38.160Z,4.00
2023-01-13T12:57:56.590Z,5.30
2023-01-13T13:00:22.300Z,5.28
2023-01-13T13:02:32.996Z,6.93
2023-01-13T13:04:43.624Z,3.70
2023-01-13T13:06:52.438Z,4.88
2023-01-13T13:09:04.039Z,3.55
2023-01-13T13:11:35.262Z,7.23
2023-01-13T13:13:44.789Z,8.67
2023-01-13T13:15:49.011Z,5.17
2023-01-13T13:18:35.233Z,7.00
2023-01-13T13:21:04.002Z,6.87
2023-01-13T13:23:27.146Z,4.90
2023-01-13T13:25:28.848Z,3.93
2023-01-13T13:27:43.560Z,5.45
2023-01-13T13:29:52.505Z,7.50
2023-01-13T13:32:12.668Z,4.55
2023-01-13T13:34:27.509Z,7.03
2023-01-13T13:36:50.365Z,5.93
2023-01-13T13:39:15.652Z,5.40
2023-01-13T13:41:22.461Z,5.57
2023-01-13T13:43:24.939Z,5.22
2023-01-13T13:45:31.188Z,4.72
2023-01-13T13:47:35.868Z,9.47
2023-01-13T13:49:40.546Z,6.60
2023-01-13T13:51:47.964Z,3.67
2023-01-13T13:53:49.789Z,3.67
2023-01-13T13:55:57.565Z,4.97
2023-01-13T13:57:59.827Z,5.97
2023-01-13T14:00:08.437Z,4.93
2023-01-13T14:02:21.113Z,4.00
2023-01-13T14:04:24.873Z,5.40
2023-01-13T14:06:26.730Z,3.65
2023-01-13T14:08:30.437Z,6.10
2023-01-13T14:10:34.960Z,4.00
2023-01-13T14:12:38.427Z,10.30
2023-01-13T14:14:43.069Z,2.60
2023-01-13T14:16:44.973Z,5.87
2023-01-13T14:18:48.652Z,3.93
2023-01-13T14:20:55.061Z,3.83
2023-01-13T14:22:59.900Z,5.53
2023-01-13T14:25:01.695Z,3.88
2023-01-13T14:27:11.044Z,2.92
2023-01-13T14:29:19.794Z,3.75
2023-01-13T14:31:24.876Z,5.27
2023-01-13T14:33:33.828Z,3.33
2023-01-13T14:35:36.822Z,4.00
2023-01-13T14:37:41.290Z,5.60
2023-01-13T14:39:42.944Z,4.40
2023-01-13T14:41:46.850Z,2.50
2023-01-13T14:43:50.530Z,6.20
2023-01-13T14:45:57.532Z,5.80
2023-01-13T14:48:01.420Z,5.18
2023-01-13T14:50:06.905Z,4.82
2023-01-13T14:52:17.099Z,5.03
2023-01-13T14:54:52.653Z,9.47
2023-01-13T14:57:12.218Z,6.75
2023-01-13T14:59:42.047Z,5.65
2023-01-13T15:01:44.042Z,4.87
2023-01-13T15:03:45.845Z,4.93
2023-01-13T15:05:48.972Z,6.53
2023-01-13T15:07:54.058Z,6.82
2023-01-13T15:09:59.510Z,7.28
2023-01-13T15:12:15.566Z,9.18
2023-01-13T15:14:23.649Z,4.97
2023-01-13T15:16:27.158Z,6.10
2023-01-13T15:18:29.069Z,5.20
2023-01-13T15:20:30.936Z,8.25
2023-01-13T15:22:34.546Z,8.05
2023-01-13T15:24:37.615Z,9.45
2023-01-13T15:26:39.333Z,7.10
2023-01-13T15:28:41.205Z,7.07
2023-01-13T15:30:43.449Z,8.23
2023-01-13T15:32:45.738Z,17.30
2023-01-13T15:34:48.633Z,7.43
2023-01-13T15:36:50.379Z,8.02
2023-01-13T15:38:52.359Z,8.38
2023-01-13T15:40:57.815Z,4.20
2023-01-13T15:42:59.567Z,5.30
2023-01-13T15:45:01.381Z,8.88
2023-01-13T15:47:06.857Z,6.28
2023-01-13T15:49:22.943Z,6.20
2023-01-13T15:51:26.756Z,9.07
2023-01-13T15:53:28.800Z,6.65
2023-01-13T15:55:37.725Z,8.50
2023-01-13T15:57:49.614Z,5.72
2023-01-13T15:59:58.460Z,8.20
2023-01-13T16:02:16.159Z,5.95
2023-01-13T16:04:22.671Z,7.15
2023-01-13T16:06:31.913Z,4.88
2023-01-13T16:08:33.843Z,6.60
2023-01-13T16:11:27.080Z,8.03
2023-01-13T16:13:30.261Z,13.93
2023-01-13T16:23:11.168Z,10.25
2023-01-13T16:25:16.443Z,7.13
2023-01-13T16:27:20.427Z,9.02
2023-01-13T16:29:22.137Z,10.32
2023-01-13T16:31:26.816Z,6.70
2023-01-13T16:33:28.419Z,13.63
2023-01-13T16:35:30.372Z,6.32
2023-01-13T16:37:31.928Z,6.43
2023-01-13T16:39:34.910Z,10.82
2023-01-13T16:41:36.567Z,5.70
2023-01-13T16:43:38.616Z,8.13
2023-01-13T16:45:41.081Z,6.00
2023-01-13T16:47:42.671Z,4.07
2023-01-13T16:49:45.112Z,9.23
2023-01-13T16:51:46.751Z,5.70
2023-01-13T16:53:49.007Z,7.82
2023-01-13T16:55:51.978Z,5.05
2023-01-13T16:57:53.628Z,6.80
2023-01-13T16:59:55.227Z,5.38
2023-01-13T17:01:56.955Z,11.35
2023-01-13T17:03:59.182Z,3.33
2023-01-13T17:06:01.958Z,6.80
2023-01-13T17:08:03.840Z,6.47
2023-01-13T17:10:06.309Z,4.35
2023-01-13T17:12:09.958Z,4.97
2023-01-13T17:14:19.282Z,5.63
2023-01-13T17:16:24.264Z,4.53
2023-01-13T17:18:25.939Z,4.75
2023-01-13T17:20:28.161Z,7.75
2023-01-13T17:22:29.733Z,5.18
2023-01-13T17:24:31.357Z,5.00
2023-01-13T17:26:35.419Z,8.55
2023-01-13T17:28:38.540Z,6.70
2023-01-13T17:30:43.513Z,5.40
2023-01-13T17:32:45.092Z,6.88
2023-01-13T17:34:47.294Z,5.73
2023-01-13T17:36:49.378Z,10.88
2023-01-13T17:38:51.047Z,5.53
2023-01-13T17:40:52.641Z,6.25
2023-01-13T17:42:54.311Z,8.53
2023-01-13T17:44:57.318Z,4.73
2023-01-13T17:46:58.900Z,4.37
2023-01-13T17:49:00.451Z,9.90
2023-01-13T17:51:01.996Z,9.25
2023-01-13T17:53:03.640Z,8.13
2023-01-13T17:55:06.034Z,4.22
2023-01-13T17:57:07.771Z,8.60
2023-01-13T17:59:11.711Z,6.07
2023-01-13T18:01:16.856Z,7.72
2023-01-13T18:03:18.830Z,6.20
2023-01-13T18:05:20.436Z,6.10
2023-01-13T18:07:22.032Z,8.02
2023-01-13T18:09:23.591Z,7.97
2023-01-13T18:11:26.009Z,5.40
2023-01-13T18:13:27.608Z,9.50
2023-01-13T18:15:29.393Z,6.85
2023-01-13T18:17:32.436Z,6.17
2023-01-13T18:19:33.981Z,6.28
2023-01-13T18:21:35.568Z,7.13
2023-01-13T18:23:37.145Z,5.50
2023-01-13T18:25:39.594Z,8.48
2023-01-13T18:27:41.219Z,7.07
2023-01-13T18:29:43.178Z,9.73
2023-01-13T18:31:45.093Z,10.02
2023-01-13T18:33:48.076Z,5.90
2023-01-13T18:35:50.090Z,4.40
2023-01-13T18:37:51.764Z,4.43
2023-01-13T18:39:53.652Z,6.20
2023-01-13T18:41:55.258Z,4.75
2023-01-13T18:43:57.036Z,11.18
2023-01-13T18:45:58.745Z,5.68
2023-01-13T18:48:02.425Z,7.35
2023-01-13T18:50:06.547Z,4.38
2023-01-13T18:52:08.140Z,5.88
2023-01-13T18:54:09.833Z,6.13
2023-01-13T18:56:12.690Z,6.63
2023-01-13T18:58:14.257Z,5.13
2023-01-13T19:00:19.367Z,7.30
2023-01-13T19:02:21.144Z,9.95
2023-01-13T19:04:22.756Z,5.55
2023-01-13T19:06:26.564Z,4.75
2023-01-13T19:08:28.377Z,6.32
2023-01-13T19:10:30.066Z,6.50
2023-01-13T19:12:32.090Z,6.95
2023-01-13T19:14:33.729Z,8.43
2023-01-13T19:16:35.496Z,6.10
2023-01-13T19:18:37.079Z,6.53
2023-01-13T19:20:38.655Z,7.22
2023-01-13T19:22:41.644Z,9.57
2023-01-13T19:24:43.454Z,5.32
2023-01-13T19:26:45.124Z,4.72
2023-01-13T19:28:46.657Z,10.20
2023-01-13T19:30:50.660Z,9.10
2023-01-13T19:32:52.314Z,9.85
2023-01-13T19:34:53.953Z,11.63
2023-01-13T19:36:55.642Z,11.77
2023-01-13T19:38:58.646Z,9.80
2023-01-13T19:41:02.184Z,11.50
2023-01-13T19:43:03.840Z,10.90
2023-01-13T19:45:06.476Z,8.57
2023-01-13T19:47:08.072Z,15.43
2023-01-13T19:49:09.777Z,11.20
2023-01-13T19:51:11.728Z,10.43
2023-01-13T19:53:16.715Z,10.75
2023-01-13T19:55:19.950Z,10.50
2023-01-13T19:57:21.588Z,11.38
2023-01-13T19:59:23.411Z,7.85
2023-01-13T20:01:25.174Z,8.68
2023-01-13T20:03:27.265Z,8.30
2023-01-13T20:05:28.909Z,6.28
2023-01-13T20:07:32.917Z,9.43
2023-01-13T20:09:34.910Z,7.93
2023-01-13T20:11:38.180Z,5.88
2023-01-13T20:13:39.803Z,6.60
2023-01-13T20:15:41.973Z,9.07
2023-01-13T20:17:43.997Z,11.23
2023-01-13T20:19:46.136Z,6.38
2023-01-13T20:21:47.800Z,10.55
2023-01-13T20:23:50.139Z,7.88
2023-01-13T20:25:51.780Z,10.45
2023-01-13T20:27:56.251Z,11.63
2023-01-13T20:29:57.839Z,7.15
2023-01-13T20:31:59.812Z,7.45
2023-01-13T20:34:01.467Z,8.38
2023-01-13T20:36:03.537Z,10.15
2023-01-13T20:38:05.292Z,7.40
2023-01-13T20:40:08.374Z,6.63
2023-01-13T20:42:10.210Z,6.78
2023-01-13T20:44:14.102Z,3.92
2023-01-13T20:46:15.888Z,4.43
2023-01-13T20:48:17.712Z,6.70
2023-01-13T20:50:19.567Z,5.90
2023-01-13T20:52:21.237Z,6.53
2023-01-13T20:54:23.300Z,4.88
2023-01-13T20:56:25.169Z,5.38
2023-01-13T20:58:26.855Z,7.15
2023-01-13T21:00:29.862Z,5.15
2023-01-13T21:02:31.571Z,4.60
2023-01-13T21:04:33.475Z,12.57
2023-01-13T21:06:35.400Z,7.38
2023-01-13T21:08:36.974Z,6.20
2023-01-13T21:10:38.648Z,7.38
2023-01-13T21:12:40.230Z,6.32
2023-01-13T21:14:41.833Z,6.78
2023-01-13T21:16:44.799Z,10.88
2023-01-13T21:18:46.535Z,8.00
2023-01-13T21:20:48.235Z,8.07
2023-01-13T21:22:50.085Z,6.45
2023-01-13T21:24:51.814Z,11.18
2023-01-13T21:26:53.405Z,6.50
2023-01-13T21:29:05.288Z,11.00
2023-01-13T21:31:09.211Z,5.40
2023-01-13T21:33:14.114Z,10.75
2023-01-13T21:35:16.053Z,7.13
2023-01-13T21:37:17.834Z,9.00
2023-01-13T21:39:19.378Z,14.95
2023-01-13T21:41:21.260Z,10.00
2023-01-13T21:43:22.831Z,6.90
2023-01-13T21:45:24.448Z,10.55
2023-01-13T21:47:26.209Z,9.65
2023-01-13T21:49:29.270Z,7.28
2023-01-13T21:51:31.493Z,9.30
2023-01-13T21:53:33.334Z,12.30
2023-01-13T21:55:35.911Z,11.30
2023-01-13T21:57:37.683Z,12.05
2023-01-13T21:59:39.324Z,9.52
2023-01-13T22:02:23.431Z,8.88
2023-01-13T22:04:02.519Z,6.78
2023-01-13T22:06:06.076Z,6.20
2023-01-13T22:08:07.695Z,10.20
2023-01-13T22:10:11.106Z,7.25
2023-01-13T22:12:12.875Z,9.02
2023-01-13T22:14:14.450Z,6.63
2023-01-13T22:16:16.154Z,8.02
2023-01-13T22:18:17.808Z,8.55
2023-01-13T22:20:20.282Z,7.20
2023-01-13T22:22:23.945Z,6.65
2023-01-13T22:24:25.541Z,6.00
2023-01-13T22:26:27.466Z,8.23
2023-01-13T22:28:29.187Z,7.35
2023-01-13T22:30:30.771Z,9.32
2023-01-13T22:32:35.901Z,10.65
2023-01-13T22:34:37.682Z,6.25
2023-01-13T22:36:39.258Z,7.45
2023-01-13T22:38:42.210Z,9.70
2023-01-13T22:40:43.914Z,9.02
2023-01-13T22:42:45.479Z,7.88
2023-01-13T22:44:47.075Z,7.47
2023-01-13T22:46:48.862Z,9.98
2023-01-13T22:48:50.511Z,6.50
2023-01-13T22:50:52.200Z,12.38
2023-01-13T22:52:53.733Z,7.35
2023-01-13T22:54:56.653Z,9.55
2023-01-13T22:56:58.241Z,9.63
2023-01-13T22:59:01.820Z,6.05
2023-01-13T23:01:10.741Z,8.25
2023-01-13T23:03:12.391Z,7.45
2023-01-13T23:05:14.176Z,9.85
2023-01-13T23:07:15.719Z,9.20
2023-01-13T23:09:17.266Z,4.50
2023-01-13T23:11:22.520Z,8.70
2023-01-13T23:13:24.110Z,8.27
2023-01-13T23:15:25.629Z,8.60
2023-01-13T23:17:27.252Z,7.72
2023-01-13T23:19:28.776Z,6.93
2023-01-13T23:21:33.026Z,9.15
2023-01-13T23:23:34.724Z,7.28
2023-01-13T23:25:36.377Z,8.82
2023-01-13T23:27:39.685Z,10.55
2023-01-13T23:29:41.420Z,8.70
2023-01-13T23:31:42.986Z,5.90
2023-01-13T23:33:45.303Z,10.48
2023-01-13T23:35:56.882Z,16.10
2023-01-13T23:37:58.456Z,11.07
2023-01-13T23:39:59.979Z,8.25
2023-01-13T23:42:01.707Z,13.00
2023-01-13T23:44:04.897Z,12.05
2023-01-13T23:46:09.075Z,5.90
2023-01-13T23:48:10.919Z,7.40
2023-01-13T23:50:12.527Z,10.60
2023-01-13T23:52:14.141Z,10.63
2023-01-13T23:54:15.663Z,11.88
2023-01-13T23:56:19.196Z,7.70
2023-01-13T23:58:20.856Z,8.63
